This is the latest recevied weather packets stored in our database for station/object EA2CQ-4. If no packets are shown the sender has not sent any weather packets the latest 10 day(s).
| Time | Temp. | Humidity | Pressure | Rain* | Wind** | Luminosity | Snow |
|---|---|---|---|---|---|---|---|
| 1787754546 | 101° F | 15% | 665.5 mmHg | - | - | - | - |
| 1787751822 | 102° F | 12% | 658.5 mmHg | - | - | - | - |
| 1787750908 | 100° F | 13% | 658.2 mmHg | - | - | - | - |
| 1787750608 | 100° F | 13% | 658.1 mmHg | - | - | - | - |
| 1787750308 | 99° F | 13% | 658.2 mmHg | - | - | - | - |
| 1787750008 | 101° F | 12% | 658.2 mmHg | - | - | - | - |
| 1787749708 | 101° F | 12% | 658.3 mmHg | - | - | - | - |
| 1787748208 | 113° F | 8% | 658 mmHg | - | - | - | - |
| 1787747908 | 124° F | 6% | 656.5 mmHg | - | - | - | - |
| 1787747308 | 131° F | 7% | 656.5 mmHg | - | - | - | - |
| 1787747008 | 130° F | 7% | 656.5 mmHg | - | - | - | - |
| 1787746708 | 129° F | 7% | 656.6 mmHg | - | - | - | - |
| 1787746408 | 127° F | 7% | 656.5 mmHg | - | - | - | - |
| 1787745508 | 126° F | 7% | 656.5 mmHg | - | - | - | - |
| 1787744607 | 127° F | 7% | 656.5 mmHg | - | - | - | - |
| 1787743407 | 123° F | 9% | 656.7 mmHg | - | - | - | - |
| 1787743107 | 122° F | 10% | 656.7 mmHg | - | - | - | - |
| 1787742507 | 120° F | 11% | 656.8 mmHg | - | - | - | - |
| 1787742207 | 118° F | 11% | 656.8 mmHg | - | - | - | - |
| 1787741907 | 116° F | 12% | 656.7 mmHg | - | - | - | - |
| 1787741607 | 115° F | 12% | 656.8 mmHg | - | - | - | - |
| 1787740707 | 110° F | 15% | 656.7 mmHg | - | - | - | - |
| 1787739806 | 100° F | 19% | 656.7 mmHg | - | - | - | - |
| 1787739206 | 93° F | 20% | 656.6 mmHg | - | - | - | - |
| 1787738606 | 89° F | 23% | 657.7 mmHg | - | - | - | - |
* Rain since midnight (hover to see other rain measurements)
** Current wind speed in m/s (hover to see current wind gust speed)